Time;durP1;ratioP1;P1;durP2;ratioP2;P2;SDS_P1;SDS_P2;PMS_P1;PMS_P2;Temp;Humidity;BMP_temperature;BMP_pressure;BME280_temperature;BME280_humidity;BME280_pressure;Samples;Min_cycle;Max_cycle;Signal;HPM_P1;HPM_P2
2024/01/29 00:04:33;;;;;;;;;;;;;;;-0.14;100.00;97023.28;10443489;28;2907;-65
2024/01/29 00:09:36;;;;;;;;;;;;;;;-0.16;100.00;97033.22;10437067;28;2934;-64
2024/01/29 00:14:38;;;;;;;;;;;;;;;-0.26;100.00;97035.25;10434610;28;2873;-67
2024/01/29 00:19:41;;;;;;;;;;;;;;;-0.34;100.00;97028.22;10439251;28;3045;-64
2024/01/29 00:24:43;;;;;;;;;;;;;;;-0.34;100.00;97027.38;10448413;28;2905;-63
2024/01/29 00:29:46;;;;;;;;;;;;;;;-0.37;100.00;97015.38;10442561;28;2910;-64
2024/01/29 00:34:51;;;;;;;;;;;;;;;-0.30;100.00;97015.50;10446384;28;2850;-66
2024/01/29 00:39:54;;;;;;;;;;;;;;;-0.38;100.00;97011.09;10438249;28;3049;-64
2024/01/29 00:44:57;;;;;;;;;;;;;;;-0.40;100.00;97017.53;10413204;28;2846;-65
2024/01/29 00:49:59;;;;;;;;;;;;;;;-0.41;100.00;97015.88;10440289;28;2921;-65
2024/01/29 00:55:01;;;;;;;;;;;;;;;-0.45;100.00;97014.56;10422139;28;2910;-65
2024/01/29 01:00:05;;;;;;;;;;;;;;;-0.34;100.00;97019.47;10434443;28;2806;-65
2024/01/29 01:05:09;;;;;;;;;;;;;;;-0.47;100.00;97025.31;10435803;28;2912;-64
2024/01/29 01:10:11;;;;;;;;;;;;;;;-0.64;100.00;97036.94;10440410;28;2963;-69
2024/01/29 01:15:14;;;;;;;;;;;;;;;-0.66;100.00;97031.84;10434039;28;2822;-65
2024/01/29 01:20:17;;;;;;;;;;;;;;;-0.59;100.00;97040.72;10434823;28;2946;-64
2024/01/29 01:25:19;;;;;;;;;;;;;;;-0.62;100.00;97043.72;10430556;28;3023;-65
2024/01/29 01:30:22;;;;;;;;;;;;;;;-0.63;100.00;97028.88;10435294;28;2930;-65
2024/01/29 01:35:24;;;;;;;;;;;;;;;-0.60;100.00;97025.88;10435232;28;2876;-65
2024/01/29 01:40:27;;;;;;;;;;;;;;;-0.53;100.00;97012.81;10442840;28;2987;-64
2024/01/29 01:45:29;;;;;;;;;;;;;;;-0.63;100.00;97007.75;10429864;28;2919;-66
2024/01/29 01:50:32;;;;;;;;;;;;;;;-0.60;100.00;97017.97;10437700;28;2971;-63
2024/01/29 01:55:34;;;;;;;;;;;;;;;-0.65;100.00;97020.28;10434647;28;3287;-65
2024/01/29 02:00:37;;;;;;;;;;;;;;;-0.65;100.00;97009.72;10434776;28;3035;-65
2024/01/29 02:05:39;;;;;;;;;;;;;;;-0.72;100.00;97014.06;10445161;28;2931;-65
2024/01/29 02:10:42;;;;;;;;;;;;;;;-0.74;100.00;97016.06;10439605;28;2908;-64
2024/01/29 02:15:44;;;;;;;;;;;;;;;-0.78;100.00;97014.75;10435666;28;2881;-65
2024/01/29 02:20:47;;;;;;;;;;;;;;;-0.76;100.00;97023.34;10434371;28;2831;-65
2024/01/29 02:25:50;;;;;;;;;;;;;;;-0.75;100.00;97022.34;10437440;28;2937;-65
2024/01/29 02:30:52;;;;;;;;;;;;;;;-0.87;100.00;97011.31;10434805;28;2929;-65
2024/01/29 02:35:56;;;;;;;;;;;;;;;-0.82;100.00;96997.63;10431949;28;2842;-65
2024/01/29 02:40:58;;;;;;;;;;;;;;;-0.80;100.00;97000.91;10429259;28;2978;-65
2024/01/29 02:46:01;;;;;;;;;;;;;;;-0.78;100.00;97001.53;10432785;28;2973;-64
2024/01/29 02:51:04;;;;;;;;;;;;;;;-0.86;100.00;97002.41;10439255;28;2873;-66
2024/01/29 02:56:07;;;;;;;;;;;;;;;-0.95;100.00;97002.63;10439179;28;2880;-65
2024/01/29 03:01:10;;;;;;;;;;;;;;;-1.00;100.00;97002.31;10440486;28;2842;-65
2024/01/29 03:06:12;;;;;;;;;;;;;;;-1.08;100.00;96997.91;10440767;28;2891;-65
2024/01/29 03:11:15;;;;;;;;;;;;;;;-1.12;100.00;96997.41;10439740;28;3117;-65
2024/01/29 03:16:17;;;;;;;;;;;;;;;-1.21;100.00;96994.94;10441631;28;3232;-70
2024/01/29 03:21:20;;;;;;;;;;;;;;;-1.27;100.00;96990.34;10438890;28;2952;-65
2024/01/29 03:26:22;;;;;;;;;;;;;;;-1.25;100.00;96989.19;10443676;28;2881;-68
2024/01/29 03:31:24;;;;;;;;;;;;;;;-1.31;100.00;96987.25;10439564;28;3052;-68
2024/01/29 03:36:27;;;;;;;;;;;;;;;-1.21;100.00;96981.75;10437274;28;2988;-65
2024/01/29 03:41:29;;;;;;;;;;;;;;;-1.27;100.00;96990.34;10441421;28;2941;-66
2024/01/29 03:46:34;;;;;;;;;;;;;;;-1.31;100.00;96989.06;10439017;28;3045;-66
2024/01/29 03:51:36;;;;;;;;;;;;;;;-1.33;100.00;96978.69;10439492;28;2848;-66
2024/01/29 03:56:39;;;;;;;;;;;;;;;-1.33;100.00;96981.31;10442756;28;2821;-65
2024/01/29 04:01:41;;;;;;;;;;;;;;;-1.40;100.00;96975.91;10441970;28;2904;-65
2024/01/29 04:06:46;;;;;;;;;;;;;;;-1.40;100.00;96985.59;10440496;28;2955;-66
2024/01/29 04:11:50;;;;;;;;;;;;;;;-1.46;100.00;96988.94;10433915;28;3007;-66
2024/01/29 04:16:53;;;;;;;;;;;;;;;-1.53;100.00;96977.38;10437627;28;3017;-65
2024/01/29 04:21:57;;;;;;;;;;;;;;;-1.56;100.00;96990.94;10433320;28;2877;-65
2024/01/29 04:26:59;;;;;;;;;;;;;;;-1.55;100.00;96985.47;10446189;28;2856;-65
2024/01/29 04:32:02;;;;;;;;;;;;;;;-1.57;100.00;96981.38;10439994;28;2997;-72
2024/01/29 04:37:04;;;;;;;;;;;;;;;-1.65;100.00;96985.69;10437084;28;2934;-65
2024/01/29 04:42:06;;;;;;;;;;;;;;;-1.65;100.00;96980.41;10433107;28;2981;-64
2024/01/29 04:47:09;;;;;;;;;;;;;;;-1.69;100.00;96978.25;10441343;28;2987;-65
2024/01/29 04:52:11;;;;;;;;;;;;;;;-1.74;100.00;96981.38;10437396;28;2938;-65
2024/01/29 04:57:14;;;;;;;;;;;;;;;-1.67;100.00;96986.81;10441467;28;2970;-67
2024/01/29 05:02:17;;;;;;;;;;;;;;;-1.66;100.00;96994.56;10441841;28;3072;-65
2024/01/29 05:07:19;;;;;;;;;;;;;;;-1.72;100.00;96986.50;10437360;28;3203;-65
2024/01/29 05:12:22;;;;;;;;;;;;;;;-1.79;100.00;96996.06;10418403;28;2887;-65
2024/01/29 05:17:24;;;;;;;;;;;;;;;-1.85;100.00;97002.81;10436976;28;2937;-65
2024/01/29 05:22:27;;;;;;;;;;;;;;;-1.96;100.00;97005.81;10437201;28;2961;-66
2024/01/29 05:27:29;;;;;;;;;;;;;;;-2.04;100.00;96989.97;10438616;28;2833;-65
2024/01/29 05:32:32;;;;;;;;;;;;;;;-2.09;100.00;97002.84;10436479;28;2877;-65
2024/01/29 05:37:35;;;;;;;;;;;;;;;-2.13;100.00;97006.78;10436595;28;2912;-66
2024/01/29 05:42:37;;;;;;;;;;;;;;;-2.17;100.00;97007.09;10435995;28;3007;-66
2024/01/29 05:47:40;;;;;;;;;;;;;;;-2.17;100.00;97011.53;10432231;28;2956;-65
2024/01/29 05:52:42;;;;;;;;;;;;;;;-2.24;100.00;97016.63;10440951;28;2818;-64
2024/01/29 05:57:45;;;;;;;;;;;;;;;-2.21;100.00;97015.50;10437997;28;2841;-64
2024/01/29 06:02:49;;;;;;;;;;;;;;;-2.22;100.00;97013.88;10432112;28;2870;-65
2024/01/29 06:07:54;;;;;;;;;;;;;;;-2.20;100.00;97017.97;10436358;28;2801;-65
2024/01/29 06:12:57;;;;;;;;;;;;;;;-2.20;100.00;97023.25;10435770;28;2851;-65
2024/01/29 06:18:00;;;;;;;;;;;;;;;-2.13;100.00;97025.22;10436005;28;2809;-64
2024/01/29 06:23:03;;;;;;;;;;;;;;;-2.14;100.00;97031.47;10441848;28;2893;-65
2024/01/29 06:28:06;;;;;;;;;;;;;;;-2.13;100.00;97033.13;10443591;28;2845;-65
2024/01/29 06:33:09;;;;;;;;;;;;;;;-2.08;100.00;97039.56;10438933;28;2884;-67
2024/01/29 06:38:11;;;;;;;;;;;;;;;-2.05;100.00;97035.75;10441663;28;2954;-66
2024/01/29 06:43:14;;;;;;;;;;;;;;;-1.99;100.00;97035.91;10442027;28;2894;-65
2024/01/29 06:48:16;;;;;;;;;;;;;;;-2.01;100.00;97045.00;10443648;28;2872;-69
2024/01/29 06:53:18;;;;;;;;;;;;;;;-2.02;100.00;97041.53;10445476;28;3188;-65
2024/01/29 06:58:21;;;;;;;;;;;;;;;-2.02;100.00;97044.16;10441744;28;2843;-65
2024/01/29 07:03:24;;;;;;;;;;;;;;;-1.95;100.00;97049.59;10443281;28;2879;-71
2024/01/29 07:08:26;;;;;;;;;;;;;;;-1.75;100.00;97050.09;10431962;28;3131;-68
2024/01/29 07:13:29;;;;;;;;;;;;;;;-1.48;100.00;97059.47;10441538;28;2953;-70
2024/01/29 07:18:32;;;;;;;;;;;;;;;-1.28;100.00;97055.47;10441373;28;2999;-75
2024/01/29 07:23:35;;;;;;;;;;;;;;;-1.24;100.00;97055.97;10441314;28;3010;-74
2024/01/29 07:28:37;;;;;;;;;;;;;;;-1.15;100.00;97071.59;10443364;28;2814;-69
2024/01/29 07:33:40;;;;;;;;;;;;;;;-1.14;100.00;97073.28;10436651;28;2905;-71
2024/01/29 07:38:43;;;;;;;;;;;;;;;-1.12;100.00;97076.56;10439202;28;3072;-74
2024/01/29 07:43:46;;;;;;;;;;;;;;;-1.10;100.00;97077.22;10441046;28;2862;-73
2024/01/29 07:48:49;;;;;;;;;;;;;;;-1.02;100.00;97086.09;10443136;28;2827;-75
2024/01/29 07:53:51;;;;;;;;;;;;;;;-0.89;100.00;97092.53;10449875;28;2869;-73
2024/01/29 07:58:54;;;;;;;;;;;;;;;-0.64;100.00;97079.22;10442604;28;3099;-72
2024/01/29 08:03:56;;;;;;;;;;;;;;;-0.45;100.00;97077.97;10440394;28;3256;-66
2024/01/29 08:08:59;;;;;;;;;;;;;;;-0.36;100.00;97082.25;10436972;28;2944;-67
2024/01/29 08:14:01;;;;;;;;;;;;;;;-0.24;100.00;97078.22;10438373;28;2893;-65
2024/01/29 08:19:04;;;;;;;;;;;;;;;0.05;100.00;97068.78;10438802;28;2853;-66
2024/01/29 08:24:07;;;;;;;;;;;;;;;0.19;100.00;97066.19;10438578;28;3053;-65
2024/01/29 08:29:10;;;;;;;;;;;;;;;0.31;100.00;97057.84;10438054;28;2973;-64
2024/01/29 08:34:12;;;;;;;;;;;;;;;0.51;100.00;97061.66;10434744;28;2862;-65
2024/01/29 08:39:17;;;;;;;;;;;;;;;0.77;100.00;97069.19;10434947;28;3009;-65
2024/01/29 08:44:19;;;;;;;;;;;;;;;0.96;100.00;97066.00;10437766;28;2918;-65
2024/01/29 08:49:22;;;;;;;;;;;;;;;1.12;100.00;97069.47;10437057;28;2861;-66
2024/01/29 08:54:24;;;;;;;;;;;;;;;1.44;100.00;97065.63;10435929;28;2833;-65
2024/01/29 08:59:29;;;;;;;;;;;;;;;1.59;100.00;97069.91;10443343;28;2830;-66
2024/01/29 09:04:32;;;;;;;;;;;;;;;1.87;100.00;97071.84;10431388;28;2829;-69
2024/01/29 09:09:38;;;;;;;;;;;;;;;2.02;100.00;97066.50;10431326;28;2814;-68
2024/01/29 09:14:41;;;;;;;;;;;;;;;2.33;100.00;97071.50;10436615;28;2835;-65
2024/01/29 09:19:45;;;;;;;;;;;;;;;2.50;100.00;97072.09;10434633;28;2901;-66
2024/01/29 09:24:47;;;;;;;;;;;;;;;2.75;100.00;97064.53;10435471;28;2797;-65
2024/01/29 09:29:50;;;;;;;;;;;;;;;3.03;100.00;97067.16;10432315;28;2897;-65
2024/01/29 09:34:53;;;;;;;;;;;;;;;3.20;100.00;97066.69;10430517;28;2839;-66
2024/01/29 09:39:55;;;;;;;;;;;;;;;3.45;100.00;97067.03;10429401;28;3045;-66
2024/01/29 09:44:58;;;;;;;;;;;;;;;3.71;100.00;97071.63;10431242;28;2873;-67
2024/01/29 09:50:00;;;;;;;;;;;;;;;3.88;100.00;97077.44;10432897;28;2850;-65
2024/01/29 09:55:03;;;;;;;;;;;;;;;3.97;100.00;97064.78;10428392;28;2892;-65
2024/01/29 10:00:06;;;;;;;;;;;;;;;4.02;100.00;97067.66;10429575;28;2863;-65
2024/01/29 10:05:11;;;;;;;;;;;;;;;4.17;100.00;97057.66;10427479;28;2844;-66
2024/01/29 10:10:14;;;;;;;;;;;;;;;4.45;100.00;97067.31;10430960;28;2830;-65
2024/01/29 10:15:16;;;;;;;;;;;;;;;4.60;100.00;97059.97;10429694;28;2956;-68
2024/01/29 10:20:20;;;;;;;;;;;;;;;4.77;100.00;97055.88;10430891;28;2863;-68
2024/01/29 10:25:23;;;;;;;;;;;;;;;5.03;100.00;97059.56;10429713;28;2891;-66
2024/01/29 10:30:25;;;;;;;;;;;;;;;5.27;100.00;97045.53;10437642;28;2817;-65
2024/01/29 10:35:29;;;;;;;;;;;;;;;5.45;100.00;97047.56;10436531;28;3022;-65
2024/01/29 10:40:32;;;;;;;;;;;;;;;5.52;100.00;97044.84;10433316;28;3030;-67
2024/01/29 10:45:35;;;;;;;;;;;;;;;5.73;100.00;97039.25;10427784;28;2913;-66
2024/01/29 10:50:38;;;;;;;;;;;;;;;6.03;100.00;97039.53;10432045;28;2860;-66
2024/01/29 10:55:40;;;;;;;;;;;;;;;6.09;98.98;97036.00;10428032;28;2927;-66
2024/01/29 11:00:43;;;;;;;;;;;;;;;6.31;98.05;97041.84;10429956;28;2807;-66
2024/01/29 11:05:46;;;;;;;;;;;;;;;6.33;98.90;97045.13;10428407;28;2926;-65
2024/01/29 11:10:48;;;;;;;;;;;;;;;6.71;92.42;97038.88;10435551;28;2896;-69
2024/01/29 11:15:50;;;;;;;;;;;;;;;6.79;94.48;97033.25;10436291;28;3231;-70
2024/01/29 11:20:53;;;;;;;;;;;;;;;6.87;95.03;97034.81;10433802;28;2964;-66
2024/01/29 11:25:58;;;;;;;;;;;;;;;7.04;88.55;97023.38;10434553;28;2993;-65
2024/01/29 11:31:01;;;;;;;;;;;;;;;7.15;81.12;97018.34;10432032;28;2880;-66
2024/01/29 11:36:04;;;;;;;;;;;;;;;7.44;78.74;97014.09;10432309;28;3109;-65
2024/01/29 11:41:06;;;;;;;;;;;;;;;7.49;83.10;97017.75;10433491;28;3032;-65
2024/01/29 11:46:09;;;;;;;;;;;;;;;7.48;76.18;97002.75;10437371;28;3016;-66
2024/01/29 11:51:11;;;;;;;;;;;;;;;7.65;71.49;97011.00;10441595;28;2988;-74
2024/01/29 11:56:14;;;;;;;;;;;;;;;7.71;75.27;96998.56;10426777;28;2813;-69
2024/01/29 12:01:20;;;;;;;;;;;;;;;7.87;73.95;96997.94;10440242;28;2818;-66
2024/01/29 12:06:22;;;;;;;;;;;;;;;8.01;73.75;96996.69;10440095;28;2909;-66
2024/01/29 12:11:26;;;;;;;;;;;;;;;8.01;75.21;96993.22;10435630;28;2942;-66
2024/01/29 12:16:28;;;;;;;;;;;;;;;8.06;74.63;96974.59;10431990;28;2965;-69
2024/01/29 12:21:31;;;;;;;;;;;;;;;8.20;75.91;96973.34;10432790;28;2969;-66
2024/01/29 12:26:35;;;;;;;;;;;;;;;8.18;81.17;96980.00;10437173;28;2842;-67
2024/01/29 12:31:38;;;;;;;;;;;;;;;8.32;74.36;96966.16;10436220;28;2921;-69
2024/01/29 12:36:42;;;;;;;;;;;;;;;8.35;72.96;96971.13;10440755;28;2998;-66
2024/01/29 12:41:44;;;;;;;;;;;;;;;8.34;76.75;96965.97;10439916;28;2840;-67
2024/01/29 12:46:47;;;;;;;;;;;;;;;8.50;72.15;96967.97;10440731;28;2889;-67
2024/01/29 12:51:49;;;;;;;;;;;;;;;8.71;63.31;96957.75;10434908;28;2906;-69
2024/01/29 12:56:55;;;;;;;;;;;;;;;8.89;62.87;96957.63;10435694;28;2940;-67
2024/01/29 13:01:58;;;;;;;;;;;;;;;8.94;61.31;96944.34;10427444;28;2854;-67
2024/01/29 13:07:01;;;;;;;;;;;;;;;8.93;61.28;96942.72;10429209;28;2857;-68
2024/01/29 13:12:03;;;;;;;;;;;;;;;9.00;59.26;96937.22;10431469;28;3088;-66
2024/01/29 13:17:06;;;;;;;;;;;;;;;9.08;59.00;96935.00;10431119;28;2855;-66
2024/01/29 13:22:09;;;;;;;;;;;;;;;8.93;62.69;96932.81;10434061;28;2885;-72
2024/01/29 13:27:11;;;;;;;;;;;;;;;9.02;60.17;96929.75;10432653;28;2832;-67
2024/01/29 13:32:14;;;;;;;;;;;;;;;9.15;57.93;96929.50;10439832;28;2839;-65
2024/01/29 13:37:16;;;;;;;;;;;;;;;9.23;59.54;96922.97;10436344;28;2814;-66
2024/01/29 13:42:19;;;;;;;;;;;;;;;9.49;52.89;96919.75;10436742;28;2843;-72
2024/01/29 13:47:21;;;;;;;;;;;;;;;9.50;53.78;96923.25;10433830;28;2837;-69
2024/01/29 13:52:24;;;;;;;;;;;;;;;9.59;58.60;96924.50;10433220;28;2910;-66
2024/01/29 13:57:27;;;;;;;;;;;;;;;9.58;76.22;96923.66;10436858;28;2870;-67
2024/01/29 14:02:34;;;;;;;;;;;;;;;9.69;79.36;96922.81;10433868;28;3448;-66
2024/01/29 14:07:37;;;;;;;;;;;;;;;9.74;82.80;96920.25;10430780;28;2907;-68
2024/01/29 14:12:39;;;;;;;;;;;;;;;9.69;81.60;96914.75;10437327;28;2806;-65
2024/01/29 14:17:42;;;;;;;;;;;;;;;9.66;72.10;96917.91;10437148;28;2898;-67
2024/01/29 14:22:45;;;;;;;;;;;;;;;9.64;73.21;96924.59;10436114;28;2833;-67
2024/01/29 14:27:48;;;;;;;;;;;;;;;9.61;71.06;96927.78;10434066;28;2865;-66
2024/01/29 14:32:51;;;;;;;;;;;;;;;9.70;71.15;96926.31;10438010;28;2887;-73
2024/01/29 14:37:53;;;;;;;;;;;;;;;9.74;73.91;96920.25;10437037;28;2950;-66
2024/01/29 14:42:56;;;;;;;;;;;;;;;9.62;73.83;96915.97;10439301;28;3019;-68
2024/01/29 14:47:59;;;;;;;;;;;;;;;9.58;77.85;96915.63;10443171;28;2912;-65
2024/01/29 14:53:01;;;;;;;;;;;;;;;9.54;84.52;96917.13;10443855;28;2852;-70
2024/01/29 14:58:04;;;;;;;;;;;;;;;9.57;92.25;96911.31;10443790;28;2803;-68
2024/01/29 15:03:12;;;;;;;;;;;;;;;9.51;95.21;96917.63;10439552;28;2968;-71
2024/01/29 15:08:15;;;;;;;;;;;;;;;9.42;100.00;96919.06;10438848;28;3266;-72
2024/01/29 15:13:17;;;;;;;;;;;;;;;9.40;100.00;96919.28;10443708;28;2861;-69
2024/01/29 15:18:19;;;;;;;;;;;;;;;9.31;100.00;96922.59;10448594;28;2786;-66
2024/01/29 15:23:22;;;;;;;;;;;;;;;9.18;100.00;96918.31;10445901;28;2877;-66
2024/01/29 15:28:26;;;;;;;;;;;;;;;9.05;100.00;96919.38;10438741;28;2947;-66
2024/01/29 15:33:29;;;;;;;;;;;;;;;8.83;100.00;96923.72;10440333;28;2893;-70
2024/01/29 15:38:32;;;;;;;;;;;;;;;8.70;100.00;96924.75;10423409;28;3003;-66
2024/01/29 15:43:35;;;;;;;;;;;;;;;8.60;100.00;96933.41;10437468;28;2891;-66
2024/01/29 15:48:39;;;;;;;;;;;;;;;8.39;100.00;96939.31;10438349;28;2885;-66
2024/01/29 15:53:41;;;;;;;;;;;;;;;8.17;100.00;96948.91;10441549;28;2807;-66
2024/01/29 15:58:44;;;;;;;;;;;;;;;8.07;100.00;96960.16;10440481;28;2822;-68
2024/01/29 16:03:46;;;;;;;;;;;;;;;7.84;100.00;96966.28;10462145;28;2743;-68
2024/01/29 16:08:49;;;;;;;;;;;;;;;7.60;100.00;96965.34;10441560;28;2895;-69
2024/01/29 16:13:51;;;;;;;;;;;;;;;7.29;100.00;96977.03;10438394;28;2864;-67
2024/01/29 16:18:54;;;;;;;;;;;;;;;7.09;100.00;96976.44;10437264;28;2873;-65
2024/01/29 16:23:57;;;;;;;;;;;;;;;6.99;100.00;96979.63;10434262;28;2966;-66
2024/01/29 16:28:59;;;;;;;;;;;;;;;6.88;100.00;96989.19;10436168;28;2863;-68
2024/01/29 16:34:02;;;;;;;;;;;;;;;6.76;100.00;96989.09;10436416;28;2905;-69
2024/01/29 16:39:05;;;;;;;;;;;;;;;6.64;100.00;96990.03;10438213;28;2982;-65
2024/01/29 16:44:10;;;;;;;;;;;;;;;6.52;100.00;96989.91;10432437;28;2942;-67
2024/01/29 16:49:13;;;;;;;;;;;;;;;6.38;100.00;96988.41;10435547;28;3007;-65
2024/01/29 16:54:15;;;;;;;;;;;;;;;6.07;100.00;96990.03;10437951;28;2826;-67
2024/01/29 16:59:18;;;;;;;;;;;;;;;5.99;100.00;96994.81;10437379;28;3448;-67
2024/01/29 17:04:21;;;;;;;;;;;;;;;5.89;100.00;96998.72;10426777;28;3317;-68
2024/01/29 17:09:23;;;;;;;;;;;;;;;5.62;100.00;96997.22;10441397;28;2917;-76
2024/01/29 17:14:26;;;;;;;;;;;;;;;5.50;100.00;96990.91;10436086;28;2958;-71
2024/01/29 17:19:28;;;;;;;;;;;;;;;5.42;100.00;96992.81;10415553;28;2916;-67
2024/01/29 17:24:31;;;;;;;;;;;;;;;5.43;100.00;96989.09;10442532;28;2875;-68
2024/01/29 17:29:34;;;;;;;;;;;;;;;5.26;100.00;96984.44;10436406;28;2833;-67
2024/01/29 17:34:36;;;;;;;;;;;;;;;4.95;100.00;96991.28;10438816;28;2888;-75
2024/01/29 17:39:39;;;;;;;;;;;;;;;4.77;100.00;96991.09;10441866;28;2934;-69
2024/01/29 17:44:42;;;;;;;;;;;;;;;4.67;100.00;97002.19;10437332;28;2893;-70
2024/01/29 17:49:44;;;;;;;;;;;;;;;4.50;100.00;97003.63;10432875;28;2885;-73
2024/01/29 17:54:47;;;;;;;;;;;;;;;4.51;100.00;97007.91;10437131;28;3008;-67
2024/01/29 17:59:49;;;;;;;;;;;;;;;4.52;100.00;97009.59;10437905;28;2867;-67
2024/01/29 18:04:52;;;;;;;;;;;;;;;4.39;100.00;97004.22;10436030;28;2819;-72
2024/01/29 18:09:55;;;;;;;;;;;;;;;4.32;100.00;97021.00;10430116;28;2875;-70
2024/01/29 18:14:57;;;;;;;;;;;;;;;4.24;100.00;97015.91;10426411;28;2957;-70
2024/01/29 18:20:00;;;;;;;;;;;;;;;4.14;100.00;97015.50;10439125;28;2946;-71
2024/01/29 18:25:03;;;;;;;;;;;;;;;3.97;100.00;97022.19;10435040;28;2821;-70
2024/01/29 18:30:06;;;;;;;;;;;;;;;3.83;100.00;97020.53;10436864;28;2840;-66
2024/01/29 18:35:09;;;;;;;;;;;;;;;3.75;100.00;97025.03;10443115;28;2857;-67
2024/01/29 18:40:12;;;;;;;;;;;;;;;3.64;100.00;97033.56;10431255;28;2976;-69
2024/01/29 18:45:15;;;;;;;;;;;;;;;3.51;100.00;97028.19;10441544;28;2945;-68
2024/01/29 18:50:17;;;;;;;;;;;;;;;3.46;100.00;97030.63;10437446;28;2809;-67
2024/01/29 18:55:20;;;;;;;;;;;;;;;3.38;100.00;97036.94;10442245;28;2940;-68
2024/01/29 19:00:23;;;;;;;;;;;;;;;3.32;100.00;97034.25;10438032;28;3285;-67
2024/01/29 19:05:25;;;;;;;;;;;;;;;3.30;100.00;97036.25;10439680;28;2993;-66
2024/01/29 19:10:29;;;;;;;;;;;;;;;3.25;100.00;97032.38;10435381;28;2977;-67
2024/01/29 19:15:31;;;;;;;;;;;;;;;3.24;100.00;97044.03;10434927;28;2909;-65
2024/01/29 19:20:34;;;;;;;;;;;;;;;3.20;100.00;97045.41;10438699;28;2821;-66
2024/01/29 19:25:36;;;;;;;;;;;;;;;3.15;100.00;97041.72;10439738;28;2862;-66
2024/01/29 19:30:41;;;;;;;;;;;;;;;3.06;100.00;97038.41;10435522;28;2900;-66
2024/01/29 19:35:43;;;;;;;;;;;;;;;3.16;100.00;97038.84;10436373;28;2895;-66
2024/01/29 19:40:45;;;;;;;;;;;;;;;3.10;100.00;97028.19;10434905;28;2891;-66
2024/01/29 19:45:51;;;;;;;;;;;;;;;3.00;100.00;97041.00;10447865;28;2449;-66
2024/01/29 19:50:53;;;;;;;;;;;;;;;2.91;100.00;97043.78;10454962;28;2304;-66
2024/01/29 19:55:56;;;;;;;;;;;;;;;2.86;100.00;97043.59;10452685;28;1756;-66
2024/01/29 20:01:02;;;;;;;;;;;;;;;2.75;100.00;97041.44;10449310;28;2222;-67
2024/01/29 20:06:04;;;;;;;;;;;;;;;2.74;100.00;97041.66;10444322;28;3102;-66
2024/01/29 20:11:07;;;;;;;;;;;;;;;2.70;100.00;97030.59;10450483;28;1919;-66
2024/01/29 20:16:10;;;;;;;;;;;;;;;2.80;100.00;97032.88;10451226;28;1867;-67
2024/01/29 20:21:14;;;;;;;;;;;;;;;2.86;100.00;97037.41;10455096;28;1479;-65
2024/01/29 20:26:17;;;;;;;;;;;;;;;2.70;100.00;97031.41;10458678;28;1526;-66
2024/01/29 20:31:19;;;;;;;;;;;;;;;2.60;100.00;97025.59;10448649;28;1922;-69
2024/01/29 20:36:22;;;;;;;;;;;;;;;2.65;100.00;97023.19;10450500;28;3041;-70
2024/01/29 20:41:24;;;;;;;;;;;;;;;2.66;100.00;97019.53;10451418;28;1382;-69
2024/01/29 20:46:31;;;;;;;;;;;;;;;2.58;100.00;97014.34;10454729;28;2847;-72
2024/01/29 20:51:33;;;;;;;;;;;;;;;2.42;100.00;97015.47;10455817;28;1914;-68
2024/01/29 20:56:36;;;;;;;;;;;;;;;2.31;100.00;97015.16;10447443;28;1533;-75
2024/01/29 21:01:38;;;;;;;;;;;;;;;2.24;100.00;97009.81;10447551;28;1561;-72
2024/01/29 21:06:43;;;;;;;;;;;;;;;2.20;100.00;97002.41;10453874;28;1632;-65
2024/01/29 21:11:46;;;;;;;;;;;;;;;2.13;100.00;97007.66;10442404;28;2061;-65
2024/01/29 21:16:49;;;;;;;;;;;;;;;2.11;100.00;97007.03;10458703;28;1669;-67
2024/01/29 21:21:51;;;;;;;;;;;;;;;2.06;100.00;97012.91;10457505;28;1470;-67
2024/01/29 21:26:54;;;;;;;;;;;;;;;1.94;100.00;97008.28;10449749;28;2734;-67
2024/01/29 21:31:57;;;;;;;;;;;;;;;1.86;100.00;97014.53;10442164;28;1926;-66
2024/01/29 21:36:59;;;;;;;;;;;;;;;1.89;100.00;97016.81;10448500;28;2978;-72
2024/01/29 21:42:02;;;;;;;;;;;;;;;1.89;100.00;97019.44;10445550;28;1415;-68
2024/01/29 21:47:05;;;;;;;;;;;;;;;1.87;100.00;97018.84;10448779;28;1493;-67
2024/01/29 21:52:07;;;;;;;;;;;;;;;1.83;100.00;97022.84;10445205;28;1910;-65
2024/01/29 21:57:10;;;;;;;;;;;;;;;1.77;100.00;97034.22;10446606;28;1677;-67
2024/01/29 22:02:12;;;;;;;;;;;;;;;1.66;100.00;97034.72;10444627;28;1435;-66
2024/01/29 22:07:15;;;;;;;;;;;;;;;1.57;100.00;97023.38;10428326;28;2865;-69
2024/01/29 22:12:17;;;;;;;;;;;;;;;1.54;100.00;97034.38;10429297;28;2909;-66
2024/01/29 22:17:20;;;;;;;;;;;;;;;1.48;100.00;97035.13;10434164;28;2869;-66
2024/01/29 22:22:23;;;;;;;;;;;;;;;1.45;100.00;97041.59;10434658;28;2930;-67
2024/01/29 22:27:26;;;;;;;;;;;;;;;1.43;100.00;97043.59;10436203;28;2951;-69
2024/01/29 22:32:33;;;;;;;;;;;;;;;1.39;100.00;97044.97;10435887;28;2876;-67
2024/01/29 22:37:36;;;;;;;;;;;;;;;1.32;100.00;97038.78;10440415;28;2990;-66
2024/01/29 22:42:38;;;;;;;;;;;;;;;1.25;100.00;97035.22;10427583;28;3017;-67
2024/01/29 22:47:41;;;;;;;;;;;;;;;1.18;100.00;97032.50;10433326;28;2913;-66
2024/01/29 22:52:43;;;;;;;;;;;;;;;1.08;100.00;97040.72;10434382;28;2846;-66
2024/01/29 22:57:47;;;;;;;;;;;;;;;0.99;100.00;97043.63;10434994;28;2857;-66
2024/01/29 23:02:49;;;;;;;;;;;;;;;0.90;100.00;97047.38;10432468;28;3017;-74
2024/01/29 23:07:52;;;;;;;;;;;;;;;0.84;100.00;97048.94;10440066;28;2938;-69
2024/01/29 23:12:54;;;;;;;;;;;;;;;0.81;100.00;97046.63;10440557;28;2932;-65
2024/01/29 23:17:57;;;;;;;;;;;;;;;0.79;100.00;97057.41;10448018;28;2932;-66
2024/01/29 23:22:59;;;;;;;;;;;;;;;0.78;100.00;97049.66;10437864;28;2911;-65
2024/01/29 23:28:03;;;;;;;;;;;;;;;0.72;100.00;97050.38;10440650;28;2861;-66
2024/01/29 23:33:05;;;;;;;;;;;;;;;0.65;100.00;97044.97;10440992;28;2869;-66
2024/01/29 23:38:08;;;;;;;;;;;;;;;0.58;100.00;97054.63;10439284;28;2913;-66
2024/01/29 23:43:10;;;;;;;;;;;;;;;0.52;100.00;97050.88;10435487;28;3104;-66
2024/01/29 23:48:13;;;;;;;;;;;;;;;0.51;100.00;97059.81;10442533;28;2900;-68
2024/01/29 23:53:15;;;;;;;;;;;;;;;0.50;100.00;97047.56;10439155;28;2904;-66
2024/01/29 23:58:18;;;;;;;;;;;;;;;0.42;100.00;97050.31;10440463;28;2926;-67
